Mystic, South Dakota
Current Conditions -  °F | °C
As of 10:53 PM on Wednesday 17 Dec 2014 (Local Time) from KCUT Reporting Station
Clear Clear  
Wind Chill: 25°   Ceiling: Unl
Heat Index: 25°   Visibility: 10mi
Dew Point: 16°   Wind: 0mph
Humidity: 69%   Direction: NA
Pressure: 29.9"   Gusts: NA
Location:  43.9317°N, 103.745°W
Report Text: KCUT 180553Z AUTO 00000KT 10SM CLR M04/M09 A2990 RMK AO2 SLP151 T10391089 11033 21078 53003
Loading
Personal Weather Stations






























Interactive Weather Map New forecast layout! Learn more

10-Day Weather Forecast

Advertisements
Track Severe Weather on mobile